createdAt,value
2018-09-22T00:00:23.677Z,0
2018-09-22T00:01:24.171Z,0
2018-09-22T00:02:24.219Z,0
2018-09-22T00:03:23.987Z,0
2018-09-22T00:04:24.795Z,0
2018-09-22T00:05:25.281Z,0
2018-09-22T00:06:25.043Z,0
2018-09-22T00:07:26.087Z,0
2018-09-22T00:08:25.292Z,0
2018-09-22T00:09:25.974Z,0
2018-09-22T00:10:27.183Z,0
2018-09-22T00:11:27.672Z,0
2018-09-22T00:12:28.160Z,0
2018-09-22T00:13:28.211Z,0
2018-09-22T00:14:28.697Z,0
2018-09-22T00:15:28.906Z,0
2018-09-22T00:16:29.669Z,0
2018-09-22T00:17:29.880Z,0
2018-09-22T00:18:29.810Z,0
2018-09-22T00:19:30.767Z,0
2018-09-22T00:20:31.976Z,0
2018-09-22T00:21:33.018Z,0
2018-09-22T00:22:32.505Z,0
2018-09-22T00:23:33.712Z,0
2018-09-22T00:24:34.197Z,0
2018-09-22T00:25:34.404Z,0
2018-09-22T00:26:35.168Z,0
2018-09-22T00:27:35.654Z,0
2018-09-22T00:28:36.429Z,0
2018-09-22T00:29:37.645Z,0
2018-09-22T00:30:37.129Z,0
2018-09-22T00:31:38.897Z,0
2018-09-22T00:32:38.382Z,0
2018-09-22T00:33:38.885Z,0
2018-09-22T00:34:38.818Z,0
2018-09-22T00:35:40.140Z,0
2018-09-22T00:36:40.191Z,0
2018-09-22T00:37:40.509Z,0
2018-09-22T00:38:40.719Z,0
2018-09-22T00:39:42.210Z,0
2018-09-22T00:40:41.420Z,0
2018-09-22T00:41:42.461Z,0
2018-09-22T00:42:42.671Z,0
2018-09-22T00:43:43.714Z,0
2018-09-22T00:44:43.927Z,0
2018-09-22T00:45:44.691Z,0
2018-09-22T00:46:45.184Z,0
2018-09-22T00:47:45.112Z,0
2018-09-22T00:48:46.436Z,0
2018-09-22T00:49:46.649Z,0
2018-09-22T00:50:46.861Z,0
2018-09-22T00:51:47.625Z,0
2018-09-22T00:52:47.835Z,0
2018-09-22T00:53:48.599Z,0
2018-09-22T00:54:49.095Z,0
2018-09-22T00:55:49.859Z,0
2018-09-22T00:56:49.902Z,0
2018-09-22T00:57:50.111Z,0
2018-09-22T00:58:50.596Z,0
2018-09-22T00:59:50.835Z,0
2018-09-22T01:00:51.598Z,0
2018-09-22T01:01:52.361Z,0
2018-09-22T01:02:52.567Z,0
2018-09-22T01:03:53.499Z,0
2018-09-22T01:04:54.260Z,0
2018-09-22T01:05:54.746Z,0
2018-09-22T01:06:54.678Z,0
2018-09-22T01:07:55.610Z,0
2018-09-22T01:08:56.542Z,0
2018-09-22T01:09:57.752Z,0
2018-09-22T01:10:57.960Z,0
2018-09-22T01:11:58.447Z,0
2018-09-22T01:12:59.212Z,0
2018-09-22T01:13:59.144Z,0
2018-09-22T01:14:59.905Z,0
2018-09-22T01:16:01.066Z,0
2018-09-22T01:17:00.552Z,0
2018-09-22T01:18:01.759Z,0
2018-09-22T01:19:02.255Z,0
2018-09-22T01:20:02.916Z,0
2018-09-22T01:21:03.400Z,0
2018-09-22T01:22:03.608Z,0
2018-09-22T01:23:04.816Z,0
2018-09-22T01:24:05.581Z,0
2018-09-22T01:25:06.070Z,0
2018-09-22T01:26:06.112Z,0
2018-09-22T01:27:06.601Z,0
2018-09-22T01:28:06.813Z,0
2018-09-22T01:29:08.019Z,0
2018-09-22T01:30:08.709Z,0
2018-09-22T01:31:09.748Z,0
2018-09-22T01:32:09.684Z,0
2018-09-22T01:33:10.170Z,0
2018-09-22T01:34:11.097Z,0
2018-09-22T01:35:11.584Z,0
2018-09-22T01:36:12.359Z,0
2018-09-22T01:37:12.570Z,0
2018-09-22T01:38:13.619Z,0
2018-09-22T01:39:13.940Z,0
2018-09-22T01:40:14.598Z,0
2018-09-22T01:41:14.639Z,0
2018-09-22T01:42:14.572Z,0
2018-09-22T01:43:15.779Z,0
2018-09-22T01:44:17.108Z,0
2018-09-22T01:45:16.594Z,0
2018-09-22T01:46:16.529Z,0
2018-09-22T01:47:17.297Z,0
2018-09-22T01:48:17.503Z,0
2018-09-22T01:49:17.991Z,0
2018-09-22T01:50:18.060Z,0
2018-09-22T01:51:17.996Z,0
2018-09-22T01:52:19.867Z,0
2018-09-22T01:53:19.375Z,0
2018-09-22T01:54:19.859Z,0
2018-09-22T01:55:20.622Z,0
2018-09-22T01:56:21.386Z,0
2018-09-22T01:57:21.593Z,0
2018-09-22T01:58:22.523Z,0
2018-09-22T01:59:23.567Z,0
2018-09-22T02:00:24.227Z,0
2018-09-22T02:01:24.714Z,0
2018-09-22T02:02:25.478Z,0
2018-09-22T02:03:25.693Z,0
2018-09-22T02:04:26.458Z,0
2018-09-22T02:05:25.667Z,0
2018-09-22T02:06:26.152Z,0
2018-09-22T02:07:26.358Z,0
2018-09-22T02:08:26.842Z,0
2018-09-22T02:09:27.329Z,0
2018-09-22T02:10:27.627Z,0
2018-09-22T02:11:27.719Z,0
2018-09-22T02:12:28.216Z,0
2018-09-22T02:13:28.979Z,0
2018-09-22T02:14:29.466Z,0
2018-09-22T02:15:29.953Z,0
2018-09-22T02:16:30.441Z,0
2018-09-22T02:17:31.526Z,0
2018-09-22T02:18:31.245Z,0
2018-09-22T02:19:31.731Z,0
2018-09-22T02:20:31.385Z,0
2018-09-22T02:21:31.870Z,0
2018-09-22T02:22:32.633Z,0
2018-09-22T02:23:32.841Z,0
2018-09-22T02:24:34.328Z,0
2018-09-22T02:25:34.649Z,0
2018-09-22T02:26:34.705Z,0
2018-09-22T02:27:35.187Z,0
2018-09-22T02:28:35.397Z,0
2018-09-22T02:29:36.173Z,0
2018-09-22T02:30:36.237Z,0
2018-09-22T02:31:36.725Z,0
2018-09-22T02:32:38.049Z,0
2018-09-22T02:33:37.813Z,0
2018-09-22T02:34:38.855Z,0
2018-09-22T02:35:39.634Z,0
2018-09-22T02:36:39.678Z,0
2018-09-22T02:37:40.005Z,0
2018-09-22T02:38:39.507Z,0
2018-09-22T02:39:41.555Z,0
2018-09-22T02:40:41.073Z,0
2018-09-22T02:41:41.840Z,0
2018-09-22T02:42:42.160Z,0
2018-09-22T02:43:42.202Z,0
2018-09-22T02:44:42.969Z,0
2018-09-22T02:45:42.737Z,0
2018-09-22T02:46:42.780Z,0
2018-09-22T02:47:43.279Z,0
2018-09-22T02:48:43.766Z,0
2018-09-22T02:49:44.251Z,0
2018-09-22T02:50:44.771Z,0
2018-09-22T02:51:45.534Z,0
2018-09-22T02:52:46.022Z,0
2018-09-22T02:53:45.506Z,0
2018-09-22T02:54:46.713Z,0
2018-09-22T02:55:48.307Z,0
2018-09-22T02:56:48.073Z,0
2018-09-22T02:57:49.118Z,0
2018-09-22T02:58:49.882Z,0
2018-09-22T02:59:49.653Z,0
2018-09-22T03:00:50.331Z,0
2018-09-22T03:01:50.815Z,0
2018-09-22T03:02:51.585Z,0
2018-09-22T03:03:52.351Z,0
2018-09-22T03:04:53.116Z,0
2018-09-22T03:05:53.330Z,0
2018-09-22T03:06:54.273Z,0
2018-09-22T03:07:55.609Z,0
2018-09-22T03:08:56.199Z,0
2018-09-22T03:09:55.090Z,0
2018-09-22T03:10:56.048Z,0
2018-09-22T03:11:55.811Z,0
2018-09-22T03:12:56.302Z,0
2018-09-22T03:13:57.359Z,0
2018-09-22T03:14:56.569Z,0
2018-09-22T03:15:57.611Z,0
2018-09-22T03:16:57.657Z,0
2018-09-22T03:17:57.426Z,0
2018-09-22T03:18:57.637Z,0
2018-09-22T03:19:59.124Z,0
2018-09-22T03:20:59.621Z,0
2018-09-22T03:22:00.111Z,0
2018-09-22T03:23:00.320Z,0
2018-09-22T03:24:01.367Z,0
2018-09-22T03:25:01.300Z,0
2018-09-22T03:26:02.082Z,0
2018-09-22T03:27:02.567Z,0
2018-09-22T03:28:03.060Z,0
2018-09-22T03:29:03.835Z,0
2018-09-22T03:30:04.927Z,0
2018-09-22T03:31:06.123Z,0
2018-09-22T03:32:06.169Z,0
2018-09-22T03:33:05.949Z,0
2018-09-22T03:34:06.153Z,0
2018-09-22T03:35:07.644Z,0
2018-09-22T03:36:07.693Z,0
2018-09-22T03:37:09.012Z,0
2018-09-22T03:38:09.053Z,0
2018-09-22T03:39:10.102Z,0
2018-09-22T03:40:10.145Z,0
2018-09-22T03:41:10.938Z,0
2018-09-22T03:42:11.702Z,0
2018-09-22T03:43:12.747Z,0
2018-09-22T03:44:12.508Z,0
2018-09-22T03:45:12.842Z,0
2018-09-22T03:46:13.329Z,0
2018-09-22T03:47:13.645Z,0
2018-09-22T03:48:14.693Z,0
2018-09-22T03:49:14.457Z,0
2018-09-22T03:50:15.502Z,0
2018-09-22T03:51:16.295Z,0
2018-09-22T03:52:16.059Z,0
2018-09-22T03:53:16.268Z,0
2018-09-22T03:54:17.309Z,0
2018-09-22T03:55:17.793Z,0
2018-09-22T03:56:18.560Z,0
2018-09-22T03:57:19.435Z,0
2018-09-22T03:58:19.203Z,0
2018-09-22T03:59:19.693Z,0
2018-09-22T04:00:20.292Z,0
2018-09-22T04:01:20.505Z,0
2018-09-22T04:02:21.006Z,0
2018-09-22T04:03:20.938Z,0
2018-09-22T04:04:22.261Z,0
2018-09-22T04:05:21.748Z,0
2018-09-22T04:06:22.694Z,0
2018-09-22T04:07:21.898Z,0
2018-09-22T04:08:22.940Z,0
2018-09-22T04:09:22.981Z,0
2018-09-22T04:10:23.193Z,0
2018-09-22T04:11:24.259Z,0
2018-09-22T04:12:24.468Z,0
2018-09-22T04:13:25.788Z,0
2018-09-22T04:14:26.001Z,0
2018-09-22T04:15:26.759Z,0
2018-09-22T04:16:38.054Z,0
2018-09-22T04:17:38.988Z,0
2018-09-22T04:18:40.031Z,0
2018-09-22T04:19:40.519Z,0
2018-09-22T04:20:41.123Z,0
2018-09-22T04:21:41.442Z,0
2018-09-22T04:22:41.205Z,0
2018-09-22T04:23:41.969Z,0
2018-09-22T04:24:42.455Z,0
2018-09-22T04:25:42.667Z,0
2018-09-22T04:26:43.874Z,0
2018-09-22T04:27:44.529Z,0
2018-09-22T04:28:45.295Z,0
2018-09-22T04:29:46.616Z,0
2018-09-22T04:30:46.663Z,0
2018-09-22T04:31:46.149Z,0
2018-09-22T04:32:46.365Z,0
2018-09-22T04:33:47.407Z,0
2018-09-22T04:34:47.724Z,0
2018-09-22T04:35:48.489Z,0
2018-09-22T04:36:48.542Z,0
2018-09-22T04:37:49.464Z,0
2018-09-22T04:38:50.788Z,0
2018-09-22T04:39:50.832Z,0
2018-09-22T04:40:51.041Z,0
2018-09-22T04:41:51.361Z,0
2018-09-22T04:42:51.575Z,0
2018-09-22T04:43:53.062Z,0
2018-09-22T04:44:53.548Z,0
2018-09-22T04:45:54.033Z,0
2018-09-22T04:46:54.803Z,4
2018-09-22T04:47:55.296Z,4
2018-09-22T04:48:55.511Z,0
2018-09-22T04:49:55.714Z,4
2018-09-22T04:50:56.480Z,4
2018-09-22T04:51:56.525Z,4
2018-09-22T04:52:57.127Z,4
2018-09-22T04:53:57.725Z,4
2018-09-22T04:54:57.652Z,8
2018-09-22T04:55:58.581Z,12
2018-09-22T04:56:58.787Z,8
2018-09-22T04:57:59.278Z,12
2018-09-22T04:58:59.490Z,16
2018-09-22T04:59:59.700Z,20
2018-09-22T05:01:00.465Z,20
2018-09-22T05:02:00.681Z,24
2018-09-22T05:03:01.612Z,24
2018-09-22T05:04:03.662Z,28
2018-09-22T05:05:02.875Z,32
2018-09-22T05:06:03.099Z,36
2018-09-22T05:07:03.306Z,40
2018-09-22T05:08:03.242Z,48
2018-09-22T05:09:04.010Z,60
2018-09-22T05:10:04.504Z,64
2018-09-22T05:11:04.715Z,76
2018-09-22T05:12:05.199Z,80
2018-09-22T05:13:05.683Z,92
2018-09-22T05:14:06.729Z,104
2018-09-22T05:15:06.666Z,112
2018-09-22T05:16:07.154Z,128
2018-09-22T05:17:08.958Z,140
2018-09-22T05:18:07.726Z,156
2018-09-22T05:19:09.051Z,172
2018-09-22T05:20:08.816Z,188
2018-09-22T05:21:09.028Z,212
2018-09-22T05:22:09.516Z,240
2018-09-22T05:23:09.454Z,256
2018-09-22T05:24:09.683Z,264
2018-09-22T05:25:09.875Z,268
2018-09-22T05:26:10.921Z,272
2018-09-22T05:27:11.413Z,276
2018-09-22T05:28:12.205Z,284
2018-09-22T05:29:12.695Z,288
2018-09-22T05:30:12.908Z,292
2018-09-22T05:31:13.405Z,296
2018-09-22T05:32:14.170Z,316
2018-09-22T05:33:14.658Z,340
2018-09-22T05:34:14.870Z,364
2018-09-22T05:35:15.638Z,376
2018-09-22T05:36:15.405Z,396
2018-09-22T05:37:15.897Z,392
2018-09-22T05:38:16.417Z,372
2018-09-22T05:39:16.627Z,368
2018-09-22T05:40:17.395Z,376
2018-09-22T05:41:18.168Z,396
2018-09-22T05:42:18.104Z,428
2018-09-22T05:43:19.447Z,464
2018-09-22T05:44:19.215Z,512
2018-09-22T05:45:20.259Z,556
2018-09-22T05:46:21.027Z,592
2018-09-22T05:47:21.077Z,620
2018-09-22T05:48:21.725Z,656
2018-09-22T05:49:22.212Z,680
2018-09-22T05:50:22.979Z,708
2018-09-22T05:51:23.470Z,716
2018-09-22T05:52:23.963Z,740
2018-09-22T05:53:25.562Z,776
2018-09-22T05:54:25.497Z,808
2018-09-22T05:55:25.713Z,848
2018-09-22T05:56:25.925Z,892
2018-09-22T05:57:26.743Z,932
2018-09-22T05:58:26.454Z,972
2018-09-22T05:59:26.943Z,1004
2018-09-22T06:00:27.429Z,988
2018-09-22T06:01:28.199Z,940
2018-09-22T06:02:28.693Z,964
2018-09-22T06:03:30.598Z,992
2018-09-22T06:04:30.120Z,1008
2018-09-22T06:05:30.888Z,1048
2018-09-22T06:06:30.655Z,1096
2018-09-22T06:07:31.146Z,1136
2018-09-22T06:08:31.944Z,1164
2018-09-22T06:09:33.933Z,1220
2018-09-22T06:10:32.630Z,1244
2018-09-22T06:11:33.116Z,1288
2018-09-22T06:12:33.330Z,1332
2018-09-22T06:13:33.823Z,1376
2018-09-22T06:14:35.151Z,1440
2018-09-22T06:15:34.919Z,1496
2018-09-22T06:16:35.133Z,1592
2018-09-22T06:17:36.180Z,1560
2018-09-22T06:18:37.394Z,1564
2018-09-22T06:19:37.160Z,1696
2018-09-22T06:20:37.371Z,1824
2018-09-22T06:21:38.691Z,1644
2018-09-22T06:22:38.460Z,1540
2018-09-22T06:23:38.894Z,1752
2018-09-22T06:24:38.432Z,1912
2018-09-22T06:25:38.653Z,1928
2018-09-22T06:26:39.138Z,1856
2018-09-22T06:27:39.351Z,1784
2018-09-22T06:28:40.525Z,1692
2018-09-22T06:29:40.322Z,1684
2018-09-22T06:30:40.814Z,1708
2018-09-22T06:31:41.025Z,1864
2018-09-22T06:32:41.793Z,2216
2018-09-22T06:33:41.560Z,2272
2018-09-22T06:34:42.050Z,2220
2018-09-22T06:35:41.988Z,2212
2018-09-22T06:36:43.481Z,2144
2018-09-22T06:37:43.692Z,2068
2018-09-22T06:38:44.653Z,1888
2018-09-22T06:39:45.143Z,1688
2018-09-22T06:40:45.633Z,1676
2018-09-22T06:41:46.678Z,1792
2018-09-22T06:42:46.618Z,1880
2018-09-22T06:43:47.106Z,2012
2018-09-22T06:44:47.597Z,2164
2018-09-22T06:45:47.812Z,2360
2018-09-22T06:46:47.748Z,2856
2018-09-22T06:47:49.242Z,3432
2018-09-22T06:48:49.900Z,3512
2018-09-22T06:49:49.834Z,4096
2018-09-22T06:50:50.606Z,3152
2018-09-22T06:51:50.815Z,3008
2018-09-22T06:52:51.035Z,2828
2018-09-22T06:53:51.263Z,2752
2018-09-22T06:54:51.884Z,2692
2018-09-22T06:55:52.369Z,2716
2018-09-22T06:56:04.096Z,2752
2018-09-22T06:57:04.481Z,2996
2018-09-22T06:58:04.975Z,2900
2018-09-22T06:59:05.187Z,2936
2018-09-22T07:00:06.242Z,3088
2018-09-22T07:01:05.726Z,3172
2018-09-22T07:02:06.218Z,3496
2018-09-22T07:03:06.708Z,3660
2018-09-22T07:04:06.920Z,4168
2018-09-22T07:05:07.691Z,3956
2018-09-22T07:06:08.183Z,4744
2018-09-22T07:07:08.850Z,5332
2018-09-22T07:08:08.789Z,7088
2018-09-22T07:09:09.556Z,6552
2018-09-22T07:10:10.050Z,5804
2018-09-22T07:11:10.260Z,8144
2018-09-22T07:12:11.470Z,8036
2018-09-22T07:13:11.964Z,5576
2018-09-22T07:14:12.178Z,5168
2018-09-22T07:15:12.394Z,4464
2018-09-22T07:16:12.887Z,4760
2018-09-22T07:17:12.986Z,4956
2018-09-22T07:18:13.196Z,5212
2018-09-22T07:19:13.693Z,4896
2018-09-22T07:20:14.464Z,4584
2018-09-22T07:21:14.681Z,4220
2018-09-22T07:22:15.733Z,3980
2018-09-22T07:23:15.502Z,3816
2018-09-22T07:24:14.999Z,3808
2018-09-22T07:25:15.895Z,3920
2018-09-22T07:26:16.294Z,4040
2018-09-22T07:27:16.237Z,3948
2018-09-22T07:28:16.455Z,4076
2018-09-22T07:29:17.509Z,4100
2018-09-22T07:30:17.284Z,4244
2018-09-22T07:31:17.609Z,4396
2018-09-22T07:32:17.825Z,4504
2018-09-22T07:33:18.641Z,4640
2018-09-22T07:34:18.855Z,4608
2018-09-22T07:35:19.345Z,4612
2018-09-22T07:36:20.119Z,4472
2018-09-22T07:37:19.502Z,4436
2018-09-22T07:38:19.717Z,4548
2018-09-22T07:39:21.735Z,4632
2018-09-22T07:40:21.574Z,4408
2018-09-22T07:41:22.066Z,4312
2018-09-22T07:42:22.838Z,4284
2018-09-22T07:43:23.056Z,4236
2018-09-22T07:44:23.544Z,4324
2018-09-22T07:45:24.318Z,4272
2018-09-22T07:46:24.372Z,4220
2018-09-22T07:47:24.885Z,4212
2018-09-22T07:48:24.656Z,4224
2018-09-22T07:49:25.425Z,4280
2018-09-22T07:50:26.198Z,4368
2018-09-22T07:51:26.411Z,4568
2018-09-22T07:52:26.899Z,4776
2018-09-22T07:53:28.226Z,4948
2018-09-22T07:54:27.439Z,4996
2018-09-22T07:55:27.992Z,5224
2018-09-22T07:56:29.464Z,5796
2018-09-22T07:57:29.700Z,5552
2018-09-22T07:58:29.943Z,5432
2018-09-22T07:59:30.001Z,5524
2018-09-22T08:00:30.543Z,5728
2018-09-22T08:01:30.693Z,6020
2018-09-22T08:02:30.472Z,6028
2018-09-22T08:03:30.684Z,6136
2018-09-22T08:04:31.456Z,6320
2018-09-22T08:05:32.223Z,6412
2018-09-22T08:06:32.998Z,6236
2018-09-22T08:07:33.660Z,6104
2018-09-22T08:08:34.155Z,5988
2018-09-22T08:09:34.646Z,5868
2018-09-22T08:10:35.422Z,5752
2018-09-22T08:11:37.089Z,5816
2018-09-22T08:12:35.715Z,5808
2018-09-22T08:13:36.931Z,5648
2018-09-22T08:14:36.872Z,5456
2018-09-22T08:15:37.643Z,5284
2018-09-22T08:16:38.137Z,5188
2018-09-22T08:17:39.108Z,5192
2018-09-22T08:18:39.617Z,5260
2018-09-22T08:19:39.829Z,5340
2018-09-22T08:20:41.329Z,5416
2018-09-22T08:21:41.816Z,5508
2018-09-22T08:22:42.306Z,5512
2018-09-22T08:23:43.076Z,5648
2018-09-22T08:24:43.288Z,5860
2018-09-22T08:25:43.782Z,6036
2018-09-22T08:26:44.275Z,6168
2018-09-22T08:27:44.214Z,6232
2018-09-22T08:28:44.706Z,6204
2018-09-22T08:29:45.198Z,6056
2018-09-22T08:30:45.695Z,5976
2018-09-22T08:31:46.466Z,6112
2018-09-22T08:32:47.791Z,6376
2018-09-22T08:33:47.285Z,6444
2018-09-22T08:34:47.504Z,6496
2018-09-22T08:35:47.999Z,6620
2018-09-22T08:36:50.551Z,6820
2018-09-22T08:37:49.281Z,6932
2018-09-22T08:38:49.776Z,6784
2018-09-22T08:39:50.270Z,6304
2018-09-22T08:40:51.041Z,5952
2018-09-22T08:41:52.289Z,5744
2018-09-22T08:42:53.517Z,5636
2018-09-22T08:43:53.497Z,5688
2018-09-22T08:44:54.904Z,5952
2018-09-22T08:45:53.903Z,6216
2018-09-22T08:46:54.437Z,5892
2018-09-22T08:47:55.404Z,6768
2018-09-22T08:48:55.899Z,6440
2018-09-22T08:49:57.579Z,6648
2018-09-22T08:50:57.170Z,6420
2018-09-22T08:51:57.588Z,5616
2018-09-22T08:52:57.526Z,5156
2018-09-22T08:53:59.307Z,4900
2018-09-22T08:54:59.246Z,4448
2018-09-22T08:56:00.122Z,4608
2018-09-22T08:57:00.616Z,4816
2018-09-22T08:58:02.099Z,4424
2018-09-22T08:59:01.873Z,4312
2018-09-22T09:00:02.365Z,4468
2018-09-22T09:01:02.859Z,4888
2018-09-22T09:02:02.634Z,5328
2018-09-22T09:03:02.851Z,5720
2018-09-22T09:04:03.068Z,5632
2018-09-22T09:05:04.886Z,6272
2018-09-22T09:06:04.544Z,6628
2018-09-22T09:07:06.037Z,7144
2018-09-22T09:08:05.979Z,8264
2018-09-22T09:09:06.195Z,8928
2018-09-22T09:10:06.689Z,8552
2018-09-22T09:11:06.184Z,9092
2018-09-22T09:12:06.841Z,8896
2018-09-22T09:13:07.710Z,7856
2018-09-22T09:14:08.346Z,7568
2018-09-22T09:15:08.855Z,7296
2018-09-22T09:16:09.355Z,6772
2018-09-22T09:17:09.842Z,6300
2018-09-22T09:18:09.558Z,6076
2018-09-22T09:19:10.055Z,6144
2018-09-22T09:20:10.825Z,6864
2018-09-22T09:21:10.320Z,6760
2018-09-22T09:22:11.096Z,6440
2018-09-22T09:23:11.590Z,6016
2018-09-22T09:24:12.124Z,6384
2018-09-22T09:25:13.175Z,6852
2018-09-22T09:26:12.672Z,7672
2018-09-22T09:27:13.165Z,8452
2018-09-22T09:28:13.272Z,8412
2018-09-22T09:29:14.210Z,8588
2018-09-22T09:30:16.259Z,9180
2018-09-22T09:31:15.751Z,9460
2018-09-22T09:32:15.528Z,9400
2018-09-22T09:33:16.299Z,9056
2018-09-22T09:34:17.076Z,9188
2018-09-22T09:35:17.576Z,9120
2018-09-22T09:36:17.630Z,10004
2018-09-22T09:37:18.125Z,10400
2018-09-22T09:38:18.790Z,9584
2018-09-22T09:39:19.289Z,8816
2018-09-22T09:40:19.785Z,9220
2018-09-22T09:41:20.276Z,9252
2018-09-22T09:42:20.324Z,8876
2018-09-22T09:43:21.500Z,8320
2018-09-22T09:44:20.634Z,8564
2018-09-22T09:45:20.575Z,7824
2018-09-22T09:46:21.622Z,8180
2018-09-22T09:47:22.396Z,8540
2018-09-22T09:48:23.060Z,8984
2018-09-22T09:49:24.111Z,10044
2018-09-22T09:50:24.166Z,10260
2018-09-22T09:51:24.658Z,11268
2018-09-22T09:52:24.593Z,12260
2018-09-22T09:53:24.814Z,12764
2018-09-22T09:54:26.119Z,12516
2018-09-22T09:55:25.900Z,14868
2018-09-22T09:56:26.403Z,17824
2018-09-22T09:57:26.178Z,20384
2018-09-22T09:58:26.858Z,11032
2018-09-22T09:59:27.351Z,12028
2018-09-22T10:00:27.569Z,12584
2018-09-22T10:01:28.069Z,11476
2018-09-22T10:02:28.567Z,11496
2018-09-22T10:03:29.339Z,13500
2018-09-22T10:04:30.879Z,16512
2018-09-22T10:05:30.236Z,17600
2018-09-22T10:06:30.732Z,15584
2018-09-22T10:07:30.953Z,19040
2018-09-22T10:08:31.903Z,18400
2018-09-22T10:09:32.118Z,23104
2018-09-22T10:10:32.895Z,21312
2018-09-22T10:11:33.115Z,23968
2018-09-22T10:12:34.177Z,26816
2018-09-22T10:13:34.674Z,20576
2018-09-22T10:14:34.893Z,23456
2018-09-22T10:15:35.669Z,21152
2018-09-22T10:16:36.179Z,19136
2018-09-22T10:17:36.124Z,17536
2018-09-22T10:18:37.277Z,18624
2018-09-22T10:19:36.497Z,22752
2018-09-22T10:20:37.280Z,20576
2018-09-22T10:21:37.502Z,20448
2018-09-22T10:22:37.998Z,21184
2018-09-22T10:23:38.216Z,23424
2018-09-22T10:24:38.994Z,24352
2018-09-22T10:25:38.489Z,24672
2018-09-22T10:26:38.986Z,22912
2018-09-22T10:27:40.482Z,22912
2018-09-22T10:28:42.318Z,22144
2018-09-22T10:29:42.051Z,22208
2018-09-22T10:30:41.272Z,21472
2018-09-22T10:31:42.212Z,23840
2018-09-22T10:32:43.759Z,20416
2018-09-22T10:33:43.978Z,18496
2018-09-22T10:34:44.474Z,18080
2018-09-22T10:35:47.203Z,18688
2018-09-22T10:36:46.298Z,19872
2018-09-22T10:37:45.243Z,17920
2018-09-22T10:38:46.188Z,16480
2018-09-22T10:39:47.682Z,14904
2018-09-22T10:40:47.269Z,16160
2018-09-22T10:41:47.826Z,14544
2018-09-22T10:42:47.607Z,14468
2018-09-22T10:43:47.652Z,15212
2018-09-22T10:44:48.984Z,16384
2018-09-22T10:45:48.200Z,19232
2018-09-22T10:46:49.255Z,20416
2018-09-22T10:47:49.748Z,13488
2018-09-22T10:48:49.770Z,14388
2018-09-22T10:49:50.269Z,10336
2018-09-22T10:50:51.043Z,17088
2018-09-22T10:51:51.548Z,11452
2018-09-22T10:52:52.987Z,11084
2018-09-22T10:53:52.215Z,18464
2018-09-22T10:54:52.713Z,16064
2018-09-22T10:55:53.488Z,16064
2018-09-22T10:56:52.713Z,13720
2018-09-22T10:57:54.212Z,14832
2018-09-22T10:58:54.877Z,13020
2018-09-22T10:59:55.099Z,11000
2018-09-22T11:00:55.039Z,10636
2018-09-22T11:01:55.979Z,9648
2018-09-22T11:02:57.481Z,9444
2018-09-22T11:03:57.980Z,9864
2018-09-22T11:04:58.039Z,10148
2018-09-22T11:05:58.536Z,10728
2018-09-22T11:06:58.756Z,10028
2018-09-22T11:07:59.976Z,9284
2018-09-22T11:09:00.221Z,8132
2018-09-22T11:10:00.717Z,7308
2018-09-22T11:11:01.493Z,6652
2018-09-22T11:12:01.990Z,6340
2018-09-22T11:13:01.933Z,6116
2018-09-22T11:14:02.149Z,5988
2018-09-22T11:15:03.202Z,6236
2018-09-22T11:16:03.419Z,6700
2018-09-22T11:17:04.920Z,6716
2018-09-22T11:18:05.725Z,6344
2018-09-22T11:19:06.223Z,6076
2018-09-22T11:20:06.441Z,6260
2018-09-22T11:21:06.657Z,6776
2018-09-22T11:22:07.432Z,6272
2018-09-22T11:23:07.477Z,5864
2018-09-22T11:24:08.257Z,5832
2018-09-22T11:25:07.755Z,5700
2018-09-22T11:26:08.969Z,5348
2018-09-22T11:27:09.189Z,5168
2018-09-22T11:28:09.962Z,4976
2018-09-22T11:29:10.351Z,4912
2018-09-22T11:30:11.041Z,4904
2018-09-22T11:31:11.820Z,4700
2018-09-22T11:32:11.868Z,4532
2018-09-22T11:33:11.812Z,4400
2018-09-22T11:34:12.580Z,4156
2018-09-22T11:35:13.077Z,4028
2018-09-22T11:36:13.294Z,3972
2018-09-22T11:37:14.230Z,4040
2018-09-22T11:38:15.800Z,4164
2018-09-22T11:39:16.029Z,4436
2018-09-22T11:40:16.249Z,4732
2018-09-22T11:41:17.019Z,5592
2018-09-22T11:42:17.206Z,5960
2018-09-22T11:43:17.816Z,5744
2018-09-22T11:44:18.037Z,5820
2018-09-22T11:45:18.527Z,6188
2018-09-22T11:46:20.075Z,7436
2018-09-22T11:47:19.903Z,11988
2018-09-22T11:48:20.128Z,14764
2018-09-22T11:49:20.908Z,13320
2018-09-22T11:50:20.682Z,17056
2018-09-22T11:51:21.735Z,14216
2018-09-22T11:52:21.953Z,14808
2018-09-22T11:53:22.180Z,19872
2018-09-22T11:54:22.955Z,18528
2018-09-22T11:55:22.847Z,20192
2018-09-22T11:56:23.769Z,13620
2018-09-22T11:57:24.133Z,19392
2018-09-22T11:58:24.631Z,17120
2018-09-22T11:59:25.577Z,13548
2018-09-22T12:00:26.073Z,23456
2018-09-22T12:01:26.296Z,26784
2018-09-22T12:02:26.794Z,24672
2018-09-22T12:03:27.291Z,32352
2018-09-22T12:04:27.512Z,34976
2018-09-22T12:05:28.008Z,31456
2018-09-22T12:06:29.688Z,30784
2018-09-22T12:07:29.395Z,24320
2018-09-22T12:08:29.333Z,26176
2018-09-22T12:09:30.279Z,26144
2018-09-22T12:10:30.774Z,10640
2018-09-22T12:11:30.996Z,11220
2018-09-22T12:12:31.213Z,11048
2018-09-22T12:13:32.264Z,8420
2018-09-22T12:14:32.485Z,9576
2018-09-22T12:15:33.260Z,12704
2018-09-22T12:16:33.639Z,11828
2018-09-22T12:17:34.138Z,9608
2018-09-22T12:18:34.635Z,12064
2018-09-22T12:19:35.577Z,7568
2018-09-22T12:20:35.792Z,8592
2018-09-22T12:21:36.011Z,19808
2018-09-22T12:22:36.954Z,10588
2018-09-22T12:23:37.901Z,10884
2018-09-22T12:24:39.124Z,6460
2018-09-22T12:25:39.623Z,7100
2018-09-22T12:26:40.675Z,5644
2018-09-22T12:27:41.447Z,5248
2018-09-22T12:28:41.667Z,4976
2018-09-22T12:29:42.054Z,4356
2018-09-22T12:30:42.546Z,3992
2018-09-22T12:31:43.037Z,3960
2018-09-22T12:32:43.349Z,4336
2018-09-22T12:33:43.843Z,4268
2018-09-22T12:34:44.350Z,5612
2018-09-22T12:35:45.289Z,6308
2018-09-22T12:36:46.229Z,6368
2018-09-22T12:37:47.283Z,6468
2018-09-22T12:38:47.503Z,6428
2018-09-22T12:39:48.288Z,6864
2018-09-22T12:40:48.780Z,8064
2018-09-22T12:41:49.834Z,14920
2018-09-22T12:42:49.612Z,12236
2018-09-22T12:43:49.552Z,9884
2018-09-22T12:44:50.327Z,8416
2018-09-22T12:45:50.543Z,9444
2018-09-22T12:46:50.765Z,13016
2018-09-22T12:47:50.704Z,12680
2018-09-22T12:48:51.645Z,22784
2018-09-22T12:49:52.311Z,29440
2018-09-22T12:50:53.084Z,35968
2018-09-22T12:51:53.037Z,35680
2018-09-22T12:52:53.813Z,26880
2018-09-22T12:53:53.754Z,22688
2018-09-22T12:54:56.843Z,38144
2018-09-22T12:55:59.697Z,36576
2018-09-22T12:56:56.807Z,34656
2018-09-22T12:57:57.024Z,36992
2018-09-22T12:58:57.827Z,41920
2018-09-22T12:59:57.769Z,42304
2018-09-22T13:00:58.267Z,36256
2018-09-22T13:01:58.765Z,36512
2018-09-22T13:02:58.987Z,37120
2018-09-22T13:03:59.482Z,36064
2018-09-22T13:04:59.982Z,33664
2018-09-22T13:06:00.763Z,33312
2018-09-22T13:07:00.987Z,33440
2018-09-22T13:08:01.487Z,36736
2018-09-22T13:09:01.984Z,36992
2018-09-22T13:10:02.928Z,33600
2018-09-22T13:11:02.871Z,29888
2018-09-22T13:12:04.092Z,28320
2018-09-22T13:13:04.590Z,28160
2018-09-22T13:14:05.091Z,29792
2018-09-22T13:15:06.469Z,31040
2018-09-22T13:16:06.242Z,34304
2018-09-22T13:17:07.019Z,32736
2018-09-22T13:18:07.242Z,30368
2018-09-22T13:19:07.295Z,29120
2018-09-22T13:20:08.556Z,27552
2018-09-22T13:21:08.393Z,27392
2018-09-22T13:22:08.893Z,26944
2018-09-22T13:23:09.672Z,26016
2018-09-22T13:24:09.613Z,26112
2018-09-22T13:25:10.119Z,23360
2018-09-22T13:26:11.196Z,21728
2018-09-22T13:27:10.973Z,22560
2018-09-22T13:28:12.036Z,19008
2018-09-22T13:29:11.979Z,19168
2018-09-22T13:30:12.649Z,22176
2018-09-22T13:31:13.146Z,19968
2018-09-22T13:32:13.940Z,23456
2018-09-22T13:33:14.442Z,17376
2018-09-22T13:34:14.666Z,23200
2018-09-22T13:35:14.887Z,21728
2018-09-22T13:36:15.388Z,20768
2018-09-22T13:37:17.878Z,21376
2018-09-22T13:38:16.846Z,20512
2018-09-22T13:39:17.622Z,18528
2018-09-22T13:40:17.872Z,16960
2018-09-22T13:41:18.815Z,16352
2018-09-22T13:42:20.040Z,16832
2018-09-22T13:43:20.821Z,16384
2018-09-22T13:44:21.045Z,15424
2018-09-22T13:45:21.545Z,15936
2018-09-22T13:46:22.354Z,15552
2018-09-22T13:47:22.576Z,15840
2018-09-22T13:48:23.644Z,15360
2018-09-22T13:49:23.586Z,14944
2018-09-22T13:50:24.261Z,14912